sensor_id;sensor_type;location;lat;lon;timestamp;temperature;humidity
4820;DHT22;2424;49.696;6.630;2022-07-23T00:02:00;22.10;99.90
4820;DHT22;2424;49.696;6.630;2022-07-23T00:07:23;21.90;99.90
4820;DHT22;2424;49.696;6.630;2022-07-23T00:12:45;21.60;99.90
4820;DHT22;2424;49.696;6.630;2022-07-23T00:18:07;21.30;99.90
4820;DHT22;2424;49.696;6.630;2022-07-23T00:23:31;21.10;99.90
4820;DHT22;2424;49.696;6.630;2022-07-23T00:28:52;21.20;99.90
4820;DHT22;2424;49.696;6.630;2022-07-23T00:34:14;21.10;99.90
4820;DHT22;2424;49.696;6.630;2022-07-23T00:39:38;21.20;99.90
4820;DHT22;2424;49.696;6.630;2022-07-23T00:45:00;21.20;99.90
4820;DHT22;2424;49.696;6.630;2022-07-23T00:50:22;21.10;99.90
4820;DHT22;2424;49.696;6.630;2022-07-23T00:55:46;21.10;99.90
4820;DHT22;2424;49.696;6.630;2022-07-23T01:01:09;20.90;99.90
4820;DHT22;2424;49.696;6.630;2022-07-23T01:06:34;20.90;99.90
4820;DHT22;2424;49.696;6.630;2022-07-23T01:11:59;20.90;99.90
4820;DHT22;2424;49.696;6.630;2022-07-23T01:17:21;20.70;99.90
4820;DHT22;2424;49.696;6.630;2022-07-23T01:22:45;20.50;99.90
4820;DHT22;2424;49.696;6.630;2022-07-23T01:28:07;20.50;99.90
4820;DHT22;2424;49.696;6.630;2022-07-23T01:33:29;20.60;99.90
4820;DHT22;2424;49.696;6.630;2022-07-23T01:38:53;20.60;99.90
4820;DHT22;2424;49.696;6.630;2022-07-23T01:44:15;20.30;99.90
4820;DHT22;2424;49.696;6.630;2022-07-23T01:49:37;20.40;99.90
4820;DHT22;2424;49.696;6.630;2022-07-23T01:55:01;20.40;99.90
4820;DHT22;2424;49.696;6.630;2022-07-23T02:00:23;20.30;99.90
4820;DHT22;2424;49.696;6.630;2022-07-23T02:05:45;20.30;99.90
4820;DHT22;2424;49.696;6.630;2022-07-23T02:11:08;20.20;99.90
4820;DHT22;2424;49.696;6.630;2022-07-23T02:16:30;20.20;99.90
4820;DHT22;2424;49.696;6.630;2022-07-23T02:21:52;20.20;99.90
4820;DHT22;2424;49.696;6.630;2022-07-23T02:27:16;20.20;99.90
4820;DHT22;2424;49.696;6.630;2022-07-23T02:32:38;20.10;99.90
4820;DHT22;2424;49.696;6.630;2022-07-23T02:38:01;20.00;99.90
4820;DHT22;2424;49.696;6.630;2022-07-23T02:43:25;19.90;99.90
4820;DHT22;2424;49.696;6.630;2022-07-23T02:48:47;19.90;99.90
4820;DHT22;2424;49.696;6.630;2022-07-23T02:54:09;19.90;99.90
4820;DHT22;2424;49.696;6.630;2022-07-23T02:59:32;19.90;99.90
4820;DHT22;2424;49.696;6.630;2022-07-23T03:04:54;19.80;99.90
4820;DHT22;2424;49.696;6.630;2022-07-23T03:10:16;19.70;99.90
4820;DHT22;2424;49.696;6.630;2022-07-23T03:15:39;19.60;99.90
4820;DHT22;2424;49.696;6.630;2022-07-23T03:21:02;19.60;99.90
4820;DHT22;2424;49.696;6.630;2022-07-23T03:26:23;19.50;99.90
4820;DHT22;2424;49.696;6.630;2022-07-23T03:31:47;19.50;99.90
4820;DHT22;2424;49.696;6.630;2022-07-23T03:37:09;19.50;99.90
4820;DHT22;2424;49.696;6.630;2022-07-23T03:42:31;19.50;99.90
4820;DHT22;2424;49.696;6.630;2022-07-23T03:47:54;19.40;99.90
4820;DHT22;2424;49.696;6.630;2022-07-23T03:53:16;19.40;99.90
4820;DHT22;2424;49.696;6.630;2022-07-23T03:58:38;19.30;99.90
4820;DHT22;2424;49.696;6.630;2022-07-23T04:04:02;19.30;99.90
4820;DHT22;2424;49.696;6.630;2022-07-23T04:09:24;19.30;99.90
4820;DHT22;2424;49.696;6.630;2022-07-23T04:14:46;19.20;99.90
4820;DHT22;2424;49.696;6.630;2022-07-23T04:20:11;19.10;99.90
4820;DHT22;2424;49.696;6.630;2022-07-23T04:25:33;19.10;99.90
4820;DHT22;2424;49.696;6.630;2022-07-23T04:30:56;19.00;99.90
4820;DHT22;2424;49.696;6.630;2022-07-23T04:36:19;19.00;99.90
4820;DHT22;2424;49.696;6.630;2022-07-23T04:41:41;19.00;99.90
4820;DHT22;2424;49.696;6.630;2022-07-23T04:47:03;19.00;99.90
4820;DHT22;2424;49.696;6.630;2022-07-23T04:52:26;18.90;99.90
4820;DHT22;2424;49.696;6.630;2022-07-23T04:57:48;18.90;99.90
4820;DHT22;2424;49.696;6.630;2022-07-23T05:03:10;19.00;99.90
4820;DHT22;2424;49.696;6.630;2022-07-23T05:08:33;19.00;99.90
4820;DHT22;2424;49.696;6.630;2022-07-23T05:13:55;19.00;99.90
4820;DHT22;2424;49.696;6.630;2022-07-23T05:19:17;19.10;99.90
4820;DHT22;2424;49.696;6.630;2022-07-23T05:24:41;19.20;99.90
4820;DHT22;2424;49.696;6.630;2022-07-23T05:30:04;19.20;99.90
4820;DHT22;2424;49.696;6.630;2022-07-23T05:35:26;19.20;99.90
4820;DHT22;2424;49.696;6.630;2022-07-23T05:40:49;19.20;99.90
4820;DHT22;2424;49.696;6.630;2022-07-23T05:46:11;19.20;99.90
4820;DHT22;2424;49.696;6.630;2022-07-23T05:51:33;19.00;99.90
4820;DHT22;2424;49.696;6.630;2022-07-23T05:56:56;19.20;99.90
4820;DHT22;2424;49.696;6.630;2022-07-23T06:02:18;19.40;99.90
4820;DHT22;2424;49.696;6.630;2022-07-23T06:07:40;19.40;99.90
4820;DHT22;2424;49.696;6.630;2022-07-23T06:13:04;19.40;99.90
4820;DHT22;2424;49.696;6.630;2022-07-23T06:18:26;19.40;99.90
4820;DHT22;2424;49.696;6.630;2022-07-23T06:23:48;19.60;99.90
4820;DHT22;2424;49.696;6.630;2022-07-23T06:29:11;19.70;99.90
4820;DHT22;2424;49.696;6.630;2022-07-23T06:34:33;19.80;99.90
4820;DHT22;2424;49.696;6.630;2022-07-23T06:39:55;19.80;99.90
4820;DHT22;2424;49.696;6.630;2022-07-23T06:45:19;19.90;99.90
4820;DHT22;2424;49.696;6.630;2022-07-23T06:50:41;19.90;99.90
4820;DHT22;2424;49.696;6.630;2022-07-23T06:56:03;20.00;99.90
4820;DHT22;2424;49.696;6.630;2022-07-23T07:01:26;20.10;99.90
4820;DHT22;2424;49.696;6.630;2022-07-23T07:06:48;20.30;99.90
4820;DHT22;2424;49.696;6.630;2022-07-23T07:12:10;20.40;99.90
4820;DHT22;2424;49.696;6.630;2022-07-23T07:17:34;20.50;99.90
4820;DHT22;2424;49.696;6.630;2022-07-23T07:22:56;20.60;99.90
4820;DHT22;2424;49.696;6.630;2022-07-23T07:28:18;20.70;99.90
4820;DHT22;2424;49.696;6.630;2022-07-23T07:33:42;20.70;99.90
4820;DHT22;2424;49.696;6.630;2022-07-23T07:39:04;20.70;99.90
4820;DHT22;2424;49.696;6.630;2022-07-23T07:44:27;20.90;99.90
4820;DHT22;2424;49.696;6.630;2022-07-23T07:49:50;20.90;99.90
4820;DHT22;2424;49.696;6.630;2022-07-23T07:55:13;21.00;99.90
4820;DHT22;2424;49.696;6.630;2022-07-23T08:00:35;21.00;99.90
4820;DHT22;2424;49.696;6.630;2022-07-23T08:05:58;21.10;99.90
4820;DHT22;2424;49.696;6.630;2022-07-23T08:11:20;21.20;99.90
4820;DHT22;2424;49.696;6.630;2022-07-23T08:16:42;21.30;99.90
4820;DHT22;2424;49.696;6.630;2022-07-23T08:22:05;21.40;99.90
4820;DHT22;2424;49.696;6.630;2022-07-23T08:27:27;21.40;99.90
4820;DHT22;2424;49.696;6.630;2022-07-23T08:32:56;21.60;99.90
4820;DHT22;2424;49.696;6.630;2022-07-23T08:38:22;21.70;99.90
4820;DHT22;2424;49.696;6.630;2022-07-23T08:43:45;21.80;99.90
4820;DHT22;2424;49.696;6.630;2022-07-23T08:49:08;22.00;99.90
4820;DHT22;2424;49.696;6.630;2022-07-23T08:54:31;22.20;99.90
4820;DHT22;2424;49.696;6.630;2022-07-23T08:59:53;22.30;99.90
4820;DHT22;2424;49.696;6.630;2022-07-23T09:05:15;22.50;99.90
4820;DHT22;2424;49.696;6.630;2022-07-23T09:11:00;22.60;99.90
4820;DHT22;2424;49.696;6.630;2022-07-23T09:16:25;22.80;99.90
4820;DHT22;2424;49.696;6.630;2022-07-23T09:21:47;22.70;99.90
4820;DHT22;2424;49.696;6.630;2022-07-23T09:27:11;22.90;99.90
4820;DHT22;2424;49.696;6.630;2022-07-23T09:32:33;23.10;99.90
4820;DHT22;2424;49.696;6.630;2022-07-23T09:38:01;23.20;99.90
4820;DHT22;2424;49.696;6.630;2022-07-23T09:43:27;23.30;99.90
4820;DHT22;2424;49.696;6.630;2022-07-23T09:48:50;23.40;99.90
4820;DHT22;2424;49.696;6.630;2022-07-23T09:54:28;23.60;99.90
4820;DHT22;2424;49.696;6.630;2022-07-23T09:59:53;23.60;99.90
4820;DHT22;2424;49.696;6.630;2022-07-23T10:05:19;23.80;99.90
4820;DHT22;2424;49.696;6.630;2022-07-23T10:10:42;23.70;99.90
4820;DHT22;2424;49.696;6.630;2022-07-23T10:16:08;23.90;99.90
4820;DHT22;2424;49.696;6.630;2022-07-23T10:21:36;24.00;99.90
4820;DHT22;2424;49.696;6.630;2022-07-23T10:27:09;24.00;99.90
4820;DHT22;2424;49.696;6.630;2022-07-23T10:32:44;24.30;99.90
4820;DHT22;2424;49.696;6.630;2022-07-23T10:38:11;24.40;99.90
4820;DHT22;2424;49.696;6.630;2022-07-23T10:43:35;24.40;99.90
4820;DHT22;2424;49.696;6.630;2022-07-23T10:49:27;24.40;99.90
4820;DHT22;2424;49.696;6.630;2022-07-23T10:54:51;24.50;99.90
4820;DHT22;2424;49.696;6.630;2022-07-23T11:00:21;24.90;99.90
4820;DHT22;2424;49.696;6.630;2022-07-23T11:05:46;24.90;99.90
4820;DHT22;2424;49.696;6.630;2022-07-23T11:11:10;25.10;99.90
4820;DHT22;2424;49.696;6.630;2022-07-23T11:16:46;25.40;99.90
4820;DHT22;2424;49.696;6.630;2022-07-23T11:22:33;25.80;99.90
4820;DHT22;2424;49.696;6.630;2022-07-23T11:28:07;26.00;99.90
4820;DHT22;2424;49.696;6.630;2022-07-23T11:33:29;26.20;99.90
4820;DHT22;2424;49.696;6.630;2022-07-23T11:38:53;26.30;99.90
4820;DHT22;2424;49.696;6.630;2022-07-23T11:44:24;26.70;99.90
4820;DHT22;2424;49.696;6.630;2022-07-23T11:49:52;26.70;99.90
4820;DHT22;2424;49.696;6.630;2022-07-23T11:55:16;26.90;99.90
4820;DHT22;2424;49.696;6.630;2022-07-23T12:00:40;26.90;99.90
4820;DHT22;2424;49.696;6.630;2022-07-23T12:06:03;27.10;99.90
4820;DHT22;2424;49.696;6.630;2022-07-23T12:11:27;27.30;99.90
4820;DHT22;2424;49.696;6.630;2022-07-23T12:17:06;27.40;99.90
4820;DHT22;2424;49.696;6.630;2022-07-23T12:22:34;27.60;99.90
4820;DHT22;2424;49.696;6.630;2022-07-23T12:28:03;27.90;99.90
4820;DHT22;2424;49.696;6.630;2022-07-23T12:33:27;27.70;99.90
4820;DHT22;2424;49.696;6.630;2022-07-23T12:38:49;28.00;99.90
4820;DHT22;2424;49.696;6.630;2022-07-23T12:44:15;28.20;99.90
4820;DHT22;2424;49.696;6.630;2022-07-23T12:49:37;28.00;99.90
4820;DHT22;2424;49.696;6.630;2022-07-23T12:54:59;28.40;99.90
4820;DHT22;2424;49.696;6.630;2022-07-23T13:00:23;28.80;99.90
4820;DHT22;2424;49.696;6.630;2022-07-23T13:05:44;28.80;98.40
4820;DHT22;2424;49.696;6.630;2022-07-23T13:11:06;29.30;98.90
4820;DHT22;2424;49.696;6.630;2022-07-23T13:16:31;28.60;97.60
4820;DHT22;2424;49.696;6.630;2022-07-23T13:21:53;27.90;98.40
4820;DHT22;2424;49.696;6.630;2022-07-23T13:27:15;28.30;97.80
4820;DHT22;2424;49.696;6.630;2022-07-23T13:32:38;28.20;98.30
4820;DHT22;2424;49.696;6.630;2022-07-23T13:38:01;28.00;98.30
4820;DHT22;2424;49.696;6.630;2022-07-23T13:43:24;28.00;98.20
4820;DHT22;2424;49.696;6.630;2022-07-23T13:48:47;28.70;97.80
4820;DHT22;2424;49.696;6.630;2022-07-23T13:54:09;29.30;97.20
4820;DHT22;2424;49.696;6.630;2022-07-23T13:59:31;28.70;98.00
4820;DHT22;2424;49.696;6.630;2022-07-23T14:04:54;28.70;97.70
4820;DHT22;2424;49.696;6.630;2022-07-23T14:10:19;29.00;97.80
4820;DHT22;2424;49.696;6.630;2022-07-23T14:15:41;29.10;97.40
4820;DHT22;2424;49.696;6.630;2022-07-23T14:21:04;29.60;96.60
4820;DHT22;2424;49.696;6.630;2022-07-23T14:26:26;29.60;96.00
4820;DHT22;2424;49.696;6.630;2022-07-23T14:31:48;29.80;95.40
4820;DHT22;2424;49.696;6.630;2022-07-23T14:37:12;29.70;95.80
4820;DHT22;2424;49.696;6.630;2022-07-23T14:42:34;29.70;95.20
4820;DHT22;2424;49.696;6.630;2022-07-23T14:47:56;29.80;94.60
4820;DHT22;2424;49.696;6.630;2022-07-23T14:53:20;29.50;94.70
4820;DHT22;2424;49.696;6.630;2022-07-23T14:58:42;29.40;93.10
4820;DHT22;2424;49.696;6.630;2022-07-23T15:04:05;29.00;93.40
4820;DHT22;2424;49.696;6.630;2022-07-23T15:09:29;29.20;93.60
4820;DHT22;2424;49.696;6.630;2022-07-23T15:14:50;29.00;93.70
4820;DHT22;2424;49.696;6.630;2022-07-23T15:20:12;28.70;94.00
4820;DHT22;2424;49.696;6.630;2022-07-23T15:25:36;28.90;94.10
4820;DHT22;2424;49.696;6.630;2022-07-23T15:30:58;29.40;94.20
4820;DHT22;2424;49.696;6.630;2022-07-23T15:36:20;29.20;93.80
4820;DHT22;2424;49.696;6.630;2022-07-23T15:41:44;29.50;93.80
4820;DHT22;2424;49.696;6.630;2022-07-23T15:47:12;29.10;93.60
4820;DHT22;2424;49.696;6.630;2022-07-23T15:52:34;28.90;93.80
4820;DHT22;2424;49.696;6.630;2022-07-23T15:57:57;28.70;93.60
4820;DHT22;2424;49.696;6.630;2022-07-23T16:03:20;28.40;94.00
4820;DHT22;2424;49.696;6.630;2022-07-23T16:08:42;28.80;94.10
4820;DHT22;2424;49.696;6.630;2022-07-23T16:14:05;29.10;94.00
4820;DHT22;2424;49.696;6.630;2022-07-23T16:19:27;29.60;93.90
4820;DHT22;2424;49.696;6.630;2022-07-23T16:24:49;29.20;93.20
4820;DHT22;2424;49.696;6.630;2022-07-23T16:30:13;28.90;93.30
4820;DHT22;2424;49.696;6.630;2022-07-23T16:35:35;28.90;93.50
4820;DHT22;2424;49.696;6.630;2022-07-23T16:40:57;28.60;93.50
4820;DHT22;2424;49.696;6.630;2022-07-23T16:46:20;29.20;93.60
4820;DHT22;2424;49.696;6.630;2022-07-23T16:51:43;29.30;92.40
4820;DHT22;2424;49.696;6.630;2022-07-23T16:57:05;29.40;92.10
4820;DHT22;2424;49.696;6.630;2022-07-23T17:02:29;29.30;92.50
4820;DHT22;2424;49.696;6.630;2022-07-23T17:07:51;29.20;92.70
4820;DHT22;2424;49.696;6.630;2022-07-23T17:13:13;29.30;91.70
4820;DHT22;2424;49.696;6.630;2022-07-23T17:18:37;29.20;91.10
4820;DHT22;2424;49.696;6.630;2022-07-23T17:23:59;29.20;91.70
4820;DHT22;2424;49.696;6.630;2022-07-23T17:29:21;29.10;91.10
4820;DHT22;2424;49.696;6.630;2022-07-23T17:34:45;29.30;91.10
4820;DHT22;2424;49.696;6.630;2022-07-23T17:40:08;29.20;91.20
4820;DHT22;2424;49.696;6.630;2022-07-23T17:45:30;29.00;91.20
4820;DHT22;2424;49.696;6.630;2022-07-23T17:50:53;29.00;91.10
4820;DHT22;2424;49.696;6.630;2022-07-23T17:56:16;28.90;91.50
4820;DHT22;2424;49.696;6.630;2022-07-23T18:01:38;28.80;91.10
4820;DHT22;2424;49.696;6.630;2022-07-23T18:07:03;28.70;91.00
4820;DHT22;2424;49.696;6.630;2022-07-23T18:12:26;28.60;91.70
4820;DHT22;2424;49.696;6.630;2022-07-23T18:17:48;28.40;91.30
4820;DHT22;2424;49.696;6.630;2022-07-23T18:23:11;28.20;91.40
4820;DHT22;2424;49.696;6.630;2022-07-23T18:28:33;28.20;91.50
4820;DHT22;2424;49.696;6.630;2022-07-23T18:33:55;28.00;91.30
4820;DHT22;2424;49.696;6.630;2022-07-23T18:39:19;27.90;91.70
4820;DHT22;2424;49.696;6.630;2022-07-23T18:44:42;27.70;91.90
4820;DHT22;2424;49.696;6.630;2022-07-23T18:50:06;27.50;92.10
4820;DHT22;2424;49.696;6.630;2022-07-23T18:55:30;27.30;92.50
4820;DHT22;2424;49.696;6.630;2022-07-23T19:00:52;27.10;92.60
4820;DHT22;2424;49.696;6.630;2022-07-23T19:06:14;26.90;93.00
4820;DHT22;2424;49.696;6.630;2022-07-23T19:11:37;26.70;93.70
4820;DHT22;2424;49.696;6.630;2022-07-23T19:16:59;26.40;94.30
4820;DHT22;2424;49.696;6.630;2022-07-23T19:22:21;26.20;94.50
4820;DHT22;2424;49.696;6.630;2022-07-23T19:27:44;25.90;94.60
4820;DHT22;2424;49.696;6.630;2022-07-23T19:33:08;25.80;95.30
4820;DHT22;2424;49.696;6.630;2022-07-23T19:38:30;25.40;95.70
4820;DHT22;2424;49.696;6.630;2022-07-23T19:43:53;25.10;96.30
4820;DHT22;2424;49.696;6.630;2022-07-23T19:49:15;24.90;96.50
4820;DHT22;2424;49.696;6.630;2022-07-23T19:54:37;24.80;96.80
4820;DHT22;2424;49.696;6.630;2022-07-23T20:00:01;24.80;97.00
4820;DHT22;2424;49.696;6.630;2022-07-23T20:05:23;24.70;97.20
4820;DHT22;2424;49.696;6.630;2022-07-23T20:10:45;24.70;97.20
4820;DHT22;2424;49.696;6.630;2022-07-23T20:16:08;24.70;97.10
4820;DHT22;2424;49.696;6.630;2022-07-23T20:21:30;24.70;97.30
4820;DHT22;2424;49.696;6.630;2022-07-23T20:26:52;24.50;97.50
4820;DHT22;2424;49.696;6.630;2022-07-23T20:32:16;24.60;97.70
4820;DHT22;2424;49.696;6.630;2022-07-23T20:37:38;24.50;97.50
4820;DHT22;2424;49.696;6.630;2022-07-23T20:43:00;24.50;97.70
4820;DHT22;2424;49.696;6.630;2022-07-23T20:48:23;24.40;97.70
4820;DHT22;2424;49.696;6.630;2022-07-23T20:53:45;24.30;97.80
4820;DHT22;2424;49.696;6.630;2022-07-23T20:59:08;24.20;98.00
4820;DHT22;2424;49.696;6.630;2022-07-23T21:04:31;24.10;98.10
4820;DHT22;2424;49.696;6.630;2022-07-23T21:09:53;24.10;98.30
4820;DHT22;2424;49.696;6.630;2022-07-23T21:15:15;24.00;98.40
4820;DHT22;2424;49.696;6.630;2022-07-23T21:20:38;23.90;98.60
4820;DHT22;2424;49.696;6.630;2022-07-23T21:26:18;23.80;98.70
4820;DHT22;2424;49.696;6.630;2022-07-23T21:31:40;23.70;98.90
4820;DHT22;2424;49.696;6.630;2022-07-23T21:37:04;23.60;99.10
4820;DHT22;2424;49.696;6.630;2022-07-23T21:42:26;23.50;99.60
4820;DHT22;2424;49.696;6.630;2022-07-23T21:47:48;23.30;99.90
4820;DHT22;2424;49.696;6.630;2022-07-23T21:53:11;23.20;99.90
4820;DHT22;2424;49.696;6.630;2022-07-23T21:58:33;23.20;99.90
4820;DHT22;2424;49.696;6.630;2022-07-23T22:03:55;23.00;99.90
4820;DHT22;2424;49.696;6.630;2022-07-23T22:09:19;23.00;99.90
4820;DHT22;2424;49.696;6.630;2022-07-23T22:14:41;22.80;99.90
4820;DHT22;2424;49.696;6.630;2022-07-23T22:20:04;22.90;99.90
4820;DHT22;2424;49.696;6.630;2022-07-23T22:25:28;22.70;99.90
4820;DHT22;2424;49.696;6.630;2022-07-23T22:30:50;22.70;99.90
4820;DHT22;2424;49.696;6.630;2022-07-23T22:36:12;22.70;99.90
4820;DHT22;2424;49.696;6.630;2022-07-23T22:41:35;22.50;99.90
4820;DHT22;2424;49.696;6.630;2022-07-23T22:46:57;22.40;99.90
4820;DHT22;2424;49.696;6.630;2022-07-23T22:52:19;22.40;99.90
4820;DHT22;2424;49.696;6.630;2022-07-23T22:57:43;22.30;99.90
4820;DHT22;2424;49.696;6.630;2022-07-23T23:03:05;22.20;99.90
4820;DHT22;2424;49.696;6.630;2022-07-23T23:08:27;22.10;99.90
4820;DHT22;2424;49.696;6.630;2022-07-23T23:13:50;22.00;99.90
4820;DHT22;2424;49.696;6.630;2022-07-23T23:19:17;21.80;99.90
4820;DHT22;2424;49.696;6.630;2022-07-23T23:24:53;21.70;99.90
4820;DHT22;2424;49.696;6.630;2022-07-23T23:30:16;21.50;99.90
4820;DHT22;2424;49.696;6.630;2022-07-23T23:35:38;21.40;99.90
4820;DHT22;2424;49.696;6.630;2022-07-23T23:41:01;21.40;99.90
4820;DHT22;2424;49.696;6.630;2022-07-23T23:46:24;21.40;99.90
4820;DHT22;2424;49.696;6.630;2022-07-23T23:51:48;21.30;99.90
4820;DHT22;2424;49.696;6.630;2022-07-23T23:57:10;21.20;99.90
